Time;durP1;ratioP1;P1;durP2;ratioP2;P2;SDS_P1;SDS_P2;PMS_P1;PMS_P2;Temp;Humidity;BMP_temperature;BMP_pressure;BME280_temperature;BME280_humidity;BME280_pressure;Samples;Min_cycle;Max_cycle;Signal;HPM_P1;HPM_P2
2021/12/20 00:01:34;;;;;;;58.40;31.27;;;5.80;99.90;;;;;;4998440;28;20022;-76
2021/12/20 00:04:01;;;;;;;59.72;32.80;;;5.70;99.90;;;;;;4997365;28;20031;-77
2021/12/20 00:06:27;;;;;;;61.42;34.25;;;5.70;99.90;;;;;;4994311;28;20149;-76
2021/12/20 00:08:53;;;;;;;60.72;33.72;;;5.60;99.90;;;;;;4994050;28;20117;-75
2021/12/20 00:11:19;;;;;;;57.22;32.80;;;5.60;99.90;;;;;;4993839;28;20046;-76
2021/12/20 00:13:45;;;;;;;61.45;33.70;;;5.60;99.90;;;;;;4995209;28;20442;-77
2021/12/20 00:16:12;;;;;;;68.47;36.83;;;5.50;99.90;;;;;;4997209;28;20037;-77
2021/12/20 00:18:38;;;;;;;65.30;37.03;;;5.40;99.90;;;;;;4995779;28;20042;-76
2021/12/20 00:21:04;;;;;;;62.53;35.15;;;5.40;99.90;;;;;;4994493;28;20055;-76
2021/12/20 00:23:30;;;;;;;63.95;35.70;;;5.40;99.90;;;;;;4996980;28;20394;-77
2021/12/20 00:25:56;;;;;;;66.10;34.08;;;5.40;99.90;;;;;;4997521;28;20023;-76
2021/12/20 00:28:23;;;;;;;62.28;34.35;;;5.30;99.90;;;;;;4997702;28;20121;-77
2021/12/20 00:30:51;;;;;;;59.50;31.85;;;5.20;99.90;;;;;;4997590;28;20027;-77
2021/12/20 00:33:17;;;;;;;61.22;34.47;;;5.20;99.90;;;;;;4996967;28;20033;-75
2021/12/20 00:35:43;;;;;;;64.13;36.92;;;5.10;99.90;;;;;;4997864;28;20022;-76
2021/12/20 00:40:54;;;;;;;61.90;34.80;;;5.20;99.90;;;;;;4991850;28;20552;-78
2021/12/20 00:43:19;;;;;;;65.13;35.38;;;5.20;99.90;;;;;;4994952;28;20026;-77
2021/12/20 00:45:45;;;;;;;66.90;37.25;;;5.10;99.90;;;;;;4996238;28;20037;-78
2021/12/20 00:48:11;;;;;;;72.57;37.88;;;5.20;99.90;;;;;;4994844;28;20030;-77
2021/12/20 00:50:39;;;;;;;73.85;37.67;;;5.20;99.90;;;;;;4984576;28;20027;-77
2021/12/20 00:53:04;;;;;;;67.32;36.78;;;5.30;99.90;;;;;;4996454;28;20026;-77
2021/12/20 00:55:30;;;;;;;65.85;36.78;;;5.30;99.90;;;;;;4993130;28;20134;-75
2021/12/20 00:57:59;;;;;;;67.53;37.13;;;5.30;99.90;;;;;;4995256;28;20046;-75
2021/12/20 01:00:31;;;;;;;60.28;33.08;;;5.40;99.90;;;;;;4989683;28;20073;-76
2021/12/20 01:02:58;;;;;;;54.65;29.95;;;5.40;99.90;;;;;;4996468;28;20057;-76
2021/12/20 01:05:25;;;;;;;52.30;29.10;;;5.40;99.90;;;;;;4995782;28;20133;-76
2021/12/20 01:07:54;;;;;;;47.72;26.65;;;5.40;99.90;;;;;;4995841;28;20157;-76
2021/12/20 01:10:20;;;;;;;45.25;25.55;;;5.30;99.90;;;;;;4996140;28;20019;-76
2021/12/20 01:12:48;;;;;;;43.22;25.02;;;5.30;99.90;;;;;;4995826;28;20031;-76
2021/12/20 01:15:21;;;;;;;37.78;23.52;;;5.20;99.90;;;;;;4996192;28;20109;-76
2021/12/20 01:17:48;;;;;;;40.50;23.48;;;5.10;99.90;;;;;;4993173;28;20388;-76
2021/12/20 01:20:14;;;;;;;40.35;23.05;;;5.00;99.90;;;;;;4989544;28;20062;-75
2021/12/20 01:22:48;;;;;;;39.08;23.17;;;5.00;99.90;;;;;;4995782;28;20034;-75
2021/12/20 01:25:15;;;;;;;32.90;20.40;;;4.90;99.90;;;;;;4995835;28;20021;-76
2021/12/20 01:27:42;;;;;;;39.25;20.65;;;4.90;99.90;;;;;;4995192;28;20057;-75
2021/12/20 01:30:10;;;;;;;30.90;18.33;;;4.90;99.90;;;;;;4993630;28;20031;-77
2021/12/20 01:32:36;;;;;;;33.97;20.13;;;4.80;99.90;;;;;;4995917;28;20069;-76
2021/12/20 01:35:02;;;;;;;30.98;18.33;;;4.70;99.90;;;;;;4987603;28;20030;-76
2021/12/20 01:37:28;;;;;;;30.77;18.83;;;4.60;99.90;;;;;;4995406;28;20056;-76
2021/12/20 01:39:58;;;;;;;33.22;17.90;;;4.60;99.90;;;;;;4995648;28;20475;-76
2021/12/20 01:42:24;;;;;;;31.90;17.52;;;4.50;99.90;;;;;;4995077;28;20072;-76
2021/12/20 01:44:50;;;;;;;33.55;19.50;;;4.50;99.90;;;;;;4995359;28;20470;-75
2021/12/20 01:47:16;;;;;;;31.42;18.70;;;4.50;99.90;;;;;;4995221;28;20038;-75
2021/12/20 01:49:56;;;;;;;33.78;20.00;;;4.50;99.90;;;;;;4994781;28;20494;-76
2021/12/20 01:52:26;;;;;;;37.67;20.05;;;4.50;99.90;;;;;;4994618;28;20080;-76
2021/12/20 01:54:51;;;;;;;47.97;22.30;;;4.50;99.90;;;;;;4993820;28;20022;-76
2021/12/20 01:57:17;;;;;;;39.50;21.42;;;4.50;99.90;;;;;;4995318;28;20080;-75
2021/12/20 01:59:43;;;;;;;43.08;23.25;;;4.50;99.90;;;;;;4995324;28;20022;-76
2021/12/20 02:02:09;;;;;;;43.08;24.70;;;4.50;99.90;;;;;;4993910;28;20382;-76
2021/12/20 02:04:45;;;;;;;48.47;26.42;;;4.40;99.90;;;;;;4994540;28;20037;-76
2021/12/20 02:07:30;;;;;;;47.90;25.60;;;4.40;99.90;;;;;;4979851;28;20042;-75
2021/12/20 02:09:56;;;;;;;46.42;26.13;;;4.40;99.90;;;;;;4995044;28;20058;-76
2021/12/20 02:12:22;;;;;;;48.22;25.88;;;4.50;99.90;;;;;;4993550;28;20058;-76
2021/12/20 02:14:49;;;;;;;50.80;27.30;;;4.50;99.90;;;;;;4994286;28;20015;-75
2021/12/20 02:17:15;;;;;;;51.88;27.95;;;4.60;99.90;;;;;;4995680;28;20042;-75
2021/12/20 02:19:41;;;;;;;56.60;30.02;;;4.60;99.90;;;;;;4998632;28;20033;-74
2021/12/20 02:22:09;;;;;;;54.80;30.48;;;4.60;99.90;;;;;;4980481;28;20031;-76
2021/12/20 02:24:39;;;;;;;58.80;29.98;;;4.60;99.90;;;;;;4978467;28;20042;-76
2021/12/20 02:27:05;;;;;;;60.40;31.42;;;4.60;99.90;;;;;;4994476;28;20049;-76
2021/12/20 02:29:45;;;;;;;55.60;30.58;;;4.60;99.90;;;;;;4997758;28;20030;-76
2021/12/20 02:37:40;;;;;;;53.22;29.45;;;4.70;99.90;;;;;;4991615;28;20045;-77
2021/12/20 02:40:06;;;;;;;51.00;29.23;;;4.70;99.90;;;;;;4994295;28;20023;-76
2021/12/20 02:42:37;;;;;;;50.47;29.90;;;4.70;99.90;;;;;;4994701;28;20030;-76
2021/12/20 02:45:11;;;;;;;57.22;30.08;;;4.60;99.90;;;;;;4994641;28;20030;-76
2021/12/20 02:47:40;;;;;;;61.20;31.10;;;4.50;99.90;;;;;;4992391;28;20106;-76
2021/12/20 02:50:06;;;;;;;60.50;30.27;;;4.40;99.90;;;;;;4994048;28;20033;-77
2021/12/20 02:52:32;;;;;;;61.78;31.73;;;4.40;99.90;;;;;;4992802;28;20029;-75
2021/12/20 02:54:57;;;;;;;60.30;31.80;;;4.30;99.90;;;;;;4992816;28;20034;-76
2021/12/20 02:57:23;;;;;;;66.22;31.88;;;4.30;99.90;;;;;;4993394;28;20039;-76
2021/12/20 02:59:49;;;;;;;58.67;32.28;;;4.20;99.90;;;;;;4994152;28;20050;-76
2021/12/20 03:02:18;;;;;;;71.05;35.20;;;4.20;99.90;;;;;;4993988;28;20037;-76
2021/12/20 03:04:43;;;;;;;66.53;33.50;;;4.20;99.90;;;;;;4993409;28;20038;-76
2021/12/20 03:07:15;;;;;;;60.60;31.60;;;4.20;99.90;;;;;;4994110;28;20391;-76
2021/12/20 03:09:45;;;;;;;61.97;31.02;;;4.20;99.90;;;;;;4992270;28;20023;-76
2021/12/20 03:12:12;;;;;;;61.83;31.13;;;4.30;99.90;;;;;;4974201;28;20035;-76
2021/12/20 03:14:43;;;;;;;56.60;31.05;;;4.20;99.90;;;;;;4991430;28;20061;-76
2021/12/20 03:17:10;;;;;;;67.03;33.92;;;4.20;99.90;;;;;;4993475;28;20030;-76
2021/12/20 03:19:36;;;;;;;60.38;30.83;;;4.20;99.90;;;;;;4993242;28;20431;-77
2021/12/20 03:22:04;;;;;;;62.95;33.58;;;4.10;99.90;;;;;;4993689;28;20053;-76
2021/12/20 03:24:30;;;;;;;65.30;32.88;;;4.10;99.90;;;;;;4993574;28;20018;-76
2021/12/20 03:26:56;;;;;;;63.88;33.50;;;4.00;99.90;;;;;;4993311;28;20086;-76
2021/12/20 03:29:21;;;;;;;63.70;34.05;;;4.00;99.90;;;;;;4993337;28;20030;-77
2021/12/20 03:31:47;;;;;;;65.68;33.08;;;4.00;99.90;;;;;;4992039;28;20030;-76
2021/12/20 03:34:14;;;;;;;69.28;35.58;;;4.10;99.90;;;;;;4992744;28;20026;-77
2021/12/20 03:36:40;;;;;;;66.97;33.42;;;4.00;99.90;;;;;;4993400;28;20084;-76
2021/12/20 03:39:07;;;;;;;67.07;36.05;;;4.10;99.90;;;;;;4992969;28;20094;-76
2021/12/20 03:41:33;;;;;;;67.65;34.40;;;4.10;99.90;;;;;;4993130;28;20117;-76
2021/12/20 03:43:59;;;;;;;70.93;36.33;;;4.10;99.90;;;;;;4993119;28;20023;-75
2021/12/20 03:46:25;;;;;;;61.95;33.40;;;4.10;99.90;;;;;;4993780;28;20050;-76
2021/12/20 03:48:51;;;;;;;70.03;35.75;;;4.20;99.90;;;;;;4992902;28;20471;-76
2021/12/20 03:51:17;;;;;;;69.38;34.92;;;4.20;99.90;;;;;;4993349;28;20030;-76
2021/12/20 03:53:42;;;;;;;64.15;33.47;;;4.30;99.90;;;;;;4993689;28;20034;-76
2021/12/20 03:56:08;;;;;;;70.50;35.78;;;4.30;99.90;;;;;;4986042;28;20368;-76
2021/12/20 03:58:35;;;;;;;73.78;36.20;;;4.30;99.90;;;;;;4993234;28;20158;-77
2021/12/20 04:01:05;;;;;;;71.05;39.03;;;4.30;99.90;;;;;;4991973;28;20027;-76
2021/12/20 04:03:33;;;;;;;68.80;36.40;;;4.40;99.90;;;;;;4993249;28;20034;-77
2021/12/20 04:06:00;;;;;;;70.45;37.70;;;4.30;99.90;;;;;;4992521;28;20035;-76
2021/12/20 04:08:25;;;;;;;70.55;37.25;;;4.30;99.90;;;;;;4992350;28;20030;-76
2021/12/20 04:10:51;;;;;;;73.30;37.83;;;4.30;99.90;;;;;;4993250;28;20029;-76
2021/12/20 04:13:17;;;;;;;63.38;34.63;;;4.20;99.90;;;;;;4989792;28;20030;-76
2021/12/20 04:15:43;;;;;;;74.47;41.08;;;4.30;99.90;;;;;;4993195;28;20085;-75
2021/12/20 04:18:08;;;;;;;80.00;38.33;;;4.30;99.90;;;;;;4995207;28;20034;-75
2021/12/20 04:20:34;;;;;;;71.95;38.65;;;4.20;99.90;;;;;;4996916;28;20030;-76
2021/12/20 04:23:00;;;;;;;77.97;42.30;;;4.30;99.90;;;;;;4997028;28;20483;-76
2021/12/20 04:25:26;;;;;;;77.68;38.25;;;4.30;99.90;;;;;;4996319;28;20455;-76
2021/12/20 04:27:52;;;;;;;69.20;36.70;;;4.20;99.90;;;;;;4996347;28;20022;-76
2021/12/20 04:30:18;;;;;;;74.13;39.08;;;4.20;99.90;;;;;;4996637;28;20501;-75
2021/12/20 04:32:45;;;;;;;79.18;40.42;;;4.30;99.90;;;;;;4996366;28;20022;-76
2021/12/20 04:35:12;;;;;;;72.28;39.05;;;4.20;99.90;;;;;;4996237;28;20019;-76
2021/12/20 04:37:41;;;;;;;70.85;40.20;;;4.20;99.90;;;;;;4996664;28;20465;-76
2021/12/20 04:40:10;;;;;;;73.18;40.08;;;4.20;99.90;;;;;;4996632;28;20018;-76
2021/12/20 04:42:36;;;;;;;81.45;40.60;;;4.20;99.90;;;;;;4996621;28;20031;-76
2021/12/20 04:45:03;;;;;;;75.90;40.42;;;4.20;99.90;;;;;;4996372;28;20025;-76
2021/12/20 04:47:28;;;;;;;73.05;39.47;;;4.10;99.90;;;;;;4996162;28;20031;-76
2021/12/20 04:49:54;;;;;;;79.47;43.13;;;4.10;99.90;;;;;;4996600;28;20121;-76
2021/12/20 04:52:20;;;;;;;81.60;43.40;;;4.10;99.90;;;;;;4996371;28;20439;-77
2021/12/20 04:54:45;;;;;;;82.25;43.95;;;4.10;99.90;;;;;;4994830;28;20026;-76
2021/12/20 04:57:11;;;;;;;81.65;42.92;;;4.20;99.90;;;;;;4992098;28;20044;-76
2021/12/20 04:59:37;;;;;;;81.60;43.47;;;4.20;99.90;;;;;;4996112;28;20061;-76
2021/12/20 05:02:03;;;;;;;83.65;43.78;;;4.20;99.90;;;;;;4995871;28;20026;-76
2021/12/20 05:04:29;;;;;;;79.57;43.05;;;4.30;99.90;;;;;;4995746;28;20030;-76
2021/12/20 05:06:54;;;;;;;84.72;44.83;;;4.30;99.90;;;;;;4995009;28;20042;-77
2021/12/20 05:09:20;;;;;;;79.55;43.38;;;4.30;99.90;;;;;;4995597;28;20026;-75
2021/12/20 05:11:58;;;;;;;83.28;41.78;;;4.20;99.90;;;;;;4996227;28;20038;-75
2021/12/20 05:14:23;;;;;;;82.38;42.13;;;4.20;99.90;;;;;;4995977;28;20018;-76
2021/12/20 05:16:49;;;;;;;73.70;37.70;;;4.20;99.90;;;;;;4992630;28;20053;-76
2021/12/20 05:19:15;;;;;;;75.43;38.60;;;4.00;99.90;;;;;;4991794;28;20475;-76
2021/12/20 05:21:40;;;;;;;78.07;39.13;;;3.90;99.90;;;;;;4995741;28;20110;-76
2021/12/20 05:24:06;;;;;;;75.35;41.08;;;3.90;99.90;;;;;;4995705;28;20471;-76
2021/12/20 05:26:32;;;;;;;76.20;40.65;;;3.80;99.90;;;;;;4994419;28;20030;-75
2021/12/20 05:28:58;;;;;;;73.07;39.47;;;3.80;99.90;;;;;;4994647;28;20026;-76
2021/12/20 05:31:23;;;;;;;80.88;40.88;;;3.80;99.90;;;;;;4995547;28;20030;-75
2021/12/20 05:33:49;;;;;;;81.80;42.10;;;3.80;99.90;;;;;;4995663;28;20364;-76
2021/12/20 05:36:15;;;;;;;81.93;42.28;;;3.80;99.90;;;;;;4995297;28;20446;-76
2021/12/20 05:38:40;;;;;;;85.68;44.45;;;3.80;99.90;;;;;;4994677;28;20037;-76
2021/12/20 05:41:06;;;;;;;78.30;40.47;;;3.80;99.90;;;;;;4993496;28;20077;-76
2021/12/20 05:43:32;;;;;;;91.30;43.00;;;3.80;99.90;;;;;;4995141;28;20480;-76
2021/12/20 05:45:57;;;;;;;82.88;42.05;;;3.90;99.90;;;;;;4995210;28;20034;-76
2021/12/20 05:48:23;;;;;;;84.25;42.60;;;3.90;99.90;;;;;;4978957;28;20110;-76
2021/12/20 05:50:49;;;;;;;84.55;42.08;;;3.90;99.90;;;;;;4994293;28;20023;-76
2021/12/20 05:53:15;;;;;;;76.80;41.65;;;4.00;99.90;;;;;;4995062;28;20030;-77
2021/12/20 05:55:40;;;;;;;84.05;44.15;;;3.90;99.90;;;;;;4995155;28;20018;-77
2021/12/20 05:58:06;;;;;;;85.97;42.30;;;3.90;99.90;;;;;;4995157;28;20390;-77
2021/12/20 06:00:32;;;;;;;82.35;43.08;;;4.00;99.90;;;;;;4991786;28;20379;-76
2021/12/20 06:02:57;;;;;;;95.32;47.30;;;4.00;99.90;;;;;;4994812;28;20029;-76
2021/12/20 06:05:23;;;;;;;88.53;45.08;;;3.90;99.90;;;;;;4994885;28;20483;-77
2021/12/20 06:07:49;;;;;;;93.45;45.70;;;3.90;99.90;;;;;;4994436;28;20499;-76
2021/12/20 06:10:17;;;;;;;82.05;41.65;;;3.90;99.90;;;;;;4993924;28;20022;-76
2021/12/20 06:12:43;;;;;;;89.05;45.05;;;3.90;99.90;;;;;;4993989;28;20034;-76
2021/12/20 06:15:10;;;;;;;88.97;45.30;;;4.00;99.90;;;;;;4992595;28;20108;-76
2021/12/20 06:17:36;;;;;;;81.82;44.25;;;4.00;99.90;;;;;;4994227;28;20035;-76
2021/12/20 06:20:07;;;;;;;87.47;44.28;;;4.00;99.90;;;;;;4994242;28;20025;-76
2021/12/20 06:22:33;;;;;;;89.60;46.97;;;4.00;99.90;;;;;;4994310;28;20442;-76
2021/12/20 06:25:00;;;;;;;97.00;46.47;;;4.10;99.90;;;;;;4993992;28;20102;-74
2021/12/20 06:27:25;;;;;;;88.10;44.22;;;4.10;99.90;;;;;;4994856;28;20422;-76
2021/12/20 06:29:51;;;;;;;75.47;41.22;;;4.10;99.90;;;;;;4994618;28;20026;-76
2021/12/20 06:32:17;;;;;;;67.63;37.42;;;4.20;99.90;;;;;;4993630;28;20039;-75
2021/12/20 06:34:42;;;;;;;58.45;31.73;;;4.20;99.90;;;;;;4994243;28;20070;-76
2021/12/20 06:37:08;;;;;;;51.97;28.60;;;4.30;99.90;;;;;;4992889;28;20035;-74
2021/12/20 06:39:34;;;;;;;54.05;28.35;;;4.40;99.90;;;;;;4993687;28;20055;-75
2021/12/20 06:41:59;;;;;;;40.53;23.77;;;4.40;99.90;;;;;;4994175;28;20053;-76
2021/12/20 06:44:25;;;;;;;40.83;22.70;;;4.50;99.90;;;;;;4993972;28;20034;-75
2021/12/20 06:46:51;;;;;;;39.85;22.27;;;4.60;99.90;;;;;;4992201;28;20035;-76
2021/12/20 06:49:17;;;;;;;50.03;19.23;;;4.70;99.90;;;;;;4992720;28;20109;-76
2021/12/20 06:51:44;;;;;;;55.53;16.77;;;4.80;99.90;;;;;;4994065;28;20156;-76
2021/12/20 06:54:11;;;;;;;27.48;14.25;;;4.90;99.90;;;;;;4994062;28;20486;-75
2021/12/20 06:56:37;;;;;;;24.67;13.43;;;5.00;99.90;;;;;;4990331;28;20545;-75
2021/12/20 06:59:03;;;;;;;21.77;12.65;;;5.10;99.90;;;;;;4992286;28;20026;-76
2021/12/20 07:01:29;;;;;;;28.88;14.40;;;5.20;99.90;;;;;;4993605;28;20526;-75
2021/12/20 07:03:55;;;;;;;29.45;16.17;;;5.50;99.90;;;;;;4993563;28;20070;-76
2021/12/20 07:06:20;;;;;;;27.52;15.52;;;5.60;99.90;;;;;;4993266;28;20104;-76
2021/12/20 07:08:46;;;;;;;27.50;14.38;;;5.70;99.90;;;;;;4994425;28;20434;-76
2021/12/20 07:11:12;;;;;;;28.48;16.40;;;5.90;99.90;;;;;;4993850;28;20105;-76
2021/12/20 07:13:38;;;;;;;32.42;17.48;;;6.20;99.90;;;;;;4993080;28;20022;-76
2021/12/20 07:16:05;;;;;;;36.30;20.48;;;6.50;99.90;;;;;;4993012;28;20037;-75
2021/12/20 07:18:30;;;;;;;27.52;14.70;;;6.80;99.90;;;;;;4993003;28;20034;-76
2021/12/20 07:20:56;;;;;;;13.30;9.20;;;7.20;99.90;;;;;;4993674;28;20029;-76
2021/12/20 07:23:23;;;;;;;19.92;10.50;;;7.50;99.90;;;;;;4993587;28;20109;-78
2021/12/20 07:25:49;;;;;;;20.23;10.57;;;7.90;99.90;;;;;;4993185;28;20440;-76
2021/12/20 07:28:15;;;;;;;18.55;10.77;;;8.20;99.90;;;;;;4993400;28;20463;-77
2021/12/20 07:30:40;;;;;;;20.20;11.18;;;8.60;99.90;;;;;;4993148;28;20034;-75
2021/12/20 07:33:07;;;;;;;19.33;10.18;;;8.80;99.90;;;;;;4993360;28;20018;-77
2021/12/20 07:35:33;;;;;;;19.95;9.95;;;9.10;99.90;;;;;;4993294;28;20442;-76
2021/12/20 07:38:01;;;;;;;14.30;9.80;;;9.20;99.90;;;;;;4993229;28;20044;-76
2021/12/20 07:40:26;;;;;;;11.85;8.13;;;9.40;99.90;;;;;;4993593;28;20030;-77
2021/12/20 07:42:52;;;;;;;21.65;8.00;;;9.50;99.90;;;;;;4993397;28;20031;-76
2021/12/20 07:45:18;;;;;;;11.00;7.35;;;9.50;99.90;;;;;;4991776;28;20023;-76
2021/12/20 07:47:45;;;;;;;12.68;7.43;;;9.70;99.90;;;;;;4993120;28;20027;-76
2021/12/20 07:50:10;;;;;;;10.57;7.07;;;9.80;99.90;;;;;;4993203;28;20506;-75
2021/12/20 07:52:36;;;;;;;10.85;6.68;;;10.00;99.90;;;;;;4996545;28;20022;-76
2021/12/20 07:55:02;;;;;;;11.35;6.20;;;10.10;99.90;;;;;;4995104;28;20209;-76
2021/12/20 07:57:28;;;;;;;11.73;7.10;;;10.20;99.90;;;;;;4997254;28;20042;-77
2021/12/20 07:59:54;;;;;;;9.15;6.22;;;10.40;99.90;;;;;;4996762;28;20387;-76
2021/12/20 08:02:19;;;;;;;12.15;6.00;;;10.70;99.90;;;;;;4995272;28;20494;-77
2021/12/20 08:04:49;;;;;;;10.55;5.85;;;10.70;99.90;;;;;;4996531;28;20050;-76
2021/12/20 08:07:16;;;;;;;9.25;5.40;;;10.60;99.90;;;;;;4996703;28;20053;-76
2021/12/20 08:09:41;;;;;;;11.57;5.95;;;10.70;99.90;;;;;;4976408;28;20032;-75
2021/12/20 08:12:08;;;;;;;12.30;6.45;;;10.60;99.90;;;;;;4989426;28;20387;-77
2021/12/20 08:14:34;;;;;;;11.88;5.50;;;10.60;99.90;;;;;;4996804;28;20048;-77
2021/12/20 08:16:59;;;;;;;6.90;4.70;;;11.10;99.90;;;;;;4993822;28;20038;-75
2021/12/20 08:19:25;;;;;;;7.93;5.50;;;11.60;99.90;;;;;;4996409;28;20019;-76
2021/12/20 08:21:51;;;;;;;11.38;5.25;;;12.10;99.90;;;;;;4995242;28;20490;-78
2021/12/20 08:24:17;;;;;;;7.57;4.75;;;12.40;99.90;;;;;;4996420;28;20498;-74
2021/12/20 08:26:44;;;;;;;5.82;4.32;;;12.50;99.90;;;;;;4995228;28;20170;-75
2021/12/20 08:29:10;;;;;;;6.55;4.85;;;12.20;99.90;;;;;;4993868;28;20026;-76
2021/12/20 08:31:36;;;;;;;16.23;5.63;;;11.90;99.90;;;;;;4995212;28;20475;-77
2021/12/20 08:34:03;;;;;;;8.57;4.18;;;12.00;99.90;;;;;;4995128;28;20026;-75
2021/12/20 08:36:29;;;;;;;9.88;4.90;;;12.10;99.90;;;;;;4994051;28;20054;-77
2021/12/20 08:38:54;;;;;;;18.45;5.93;;;12.30;99.90;;;;;;4995420;28;20062;-77
2021/12/20 08:41:20;;;;;;;7.50;4.82;;;12.50;99.90;;;;;;4995543;28;20026;-77
2021/12/20 08:43:47;;;;;;;14.48;4.28;;;13.10;99.90;;;;;;4992784;28;20022;-77
2021/12/20 08:46:15;;;;;;;8.70;4.05;;;13.20;99.90;;;;;;4995649;28;20031;-76
2021/12/20 08:48:42;;;;;;;10.82;5.10;;;13.60;99.90;;;;;;4995580;28;20094;-75
2021/12/20 08:51:08;;;;;;;6.88;4.43;;;13.30;99.90;;;;;;4995394;28;20038;-75
2021/12/20 08:53:34;;;;;;;8.60;4.63;;;13.20;99.90;;;;;;4994765;28;20031;-76
2021/12/20 08:56:00;;;;;;;6.03;4.05;;;13.60;99.90;;;;;;4995432;28;20026;-76
2021/12/20 08:58:26;;;;;;;8.25;4.60;;;13.70;99.90;;;;;;4995450;28;20034;-77
2021/12/20 09:00:54;;;;;;;6.03;4.53;;;14.20;99.90;;;;;;4996112;28;20018;-77
2021/12/20 09:03:20;;;;;;;12.98;4.70;;;14.50;99.90;;;;;;4981737;28;20034;-77
2021/12/20 09:05:46;;;;;;;9.23;4.03;;;14.80;99.90;;;;;;4975344;28;20050;-76
2021/12/20 09:08:14;;;;;;;10.40;3.85;;;14.10;99.90;;;;;;4986311;28;20034;-76
2021/12/20 09:10:40;;;;;;;5.55;4.03;;;13.60;99.90;;;;;;4991254;28;20026;-77
2021/12/20 09:13:06;;;;;;;13.15;4.45;;;13.20;99.90;;;;;;4995476;28;20101;-77
2021/12/20 09:15:32;;;;;;;6.35;3.97;;;13.30;99.90;;;;;;4995462;28;20442;-76
2021/12/20 09:17:58;;;;;;;5.53;3.97;;;13.30;99.90;;;;;;4997252;28;20042;-74
2021/12/20 09:20:26;;;;;;;9.05;4.63;;;12.80;99.90;;;;;;5000421;28;20030;-78
2021/12/20 09:22:53;;;;;;;17.65;5.32;;;12.80;99.90;;;;;;5004731;28;20027;-77
2021/12/20 09:25:25;;;;;;;10.23;5.13;;;12.80;99.90;;;;;;4996974;28;20018;-77
2021/12/20 09:27:56;;;;;;;8.88;4.65;;;12.80;99.90;;;;;;5001002;28;20090;-78
2021/12/20 09:30:23;;;;;;;9.05;4.57;;;12.60;99.90;;;;;;4995648;28;20081;-78
2021/12/20 09:32:52;;;;;;;16.00;4.70;;;12.60;99.90;;;;;;4999267;28;20438;-78
2021/12/20 09:35:20;;;;;;;20.52;4.60;;;12.70;99.90;;;;;;5001996;28;20019;-76
2021/12/20 09:37:50;;;;;;;10.88;4.35;;;12.60;99.90;;;;;;5000099;28;20088;-77
2021/12/20 09:40:18;;;;;;;7.50;4.20;;;12.50;99.90;;;;;;4997649;28;20422;-77
2021/12/20 09:42:51;;;;;;;6.88;3.97;;;12.60;99.90;;;;;;4996534;28;20022;-74
2021/12/20 09:45:19;;;;;;;6.90;3.78;;;12.80;99.90;;;;;;4999316;28;20023;-77
2021/12/20 09:47:45;;;;;;;8.63;4.47;;;12.60;99.90;;;;;;4995051;28;20025;-77
2021/12/20 09:50:13;;;;;;;9.90;3.53;;;12.50;99.90;;;;;;4998156;28;20058;-77
2021/12/20 09:52:45;;;;;;;5.85;3.78;;;12.50;99.90;;;;;;4973651;28;20034;-78
2021/12/20 09:55:12;;;;;;;;;;;12.50;99.90;;;;;;4985165;28;20035;-77
2021/12/20 09:57:39;;;;;;;8.88;4.70;;;12.50;99.80;;;;;;5003889;28;19936;-78
2021/12/20 10:00:07;;;;;;;7.13;4.28;;;12.50;99.90;;;;;;4999109;28;20030;-79
2021/12/20 10:02:33;;;;;;;5.20;3.97;;;12.50;99.50;;;;;;5000535;28;20112;-77
2021/12/20 10:05:06;;;;;;;5.35;3.20;;;12.60;99.80;;;;;;5002185;28;20054;-77
2021/12/20 10:07:33;;;;;;;9.30;3.03;;;12.90;99.10;;;;;;4993640;28;20022;-75
2021/12/20 10:10:00;;;;;;;9.57;3.88;;;13.10;98.30;;;;;;5001964;28;20034;-77
2021/12/20 10:12:27;;;;;;;5.95;3.45;;;13.60;97.20;;;;;;4995448;28;20031;-77
2021/12/20 10:15:01;;;;;;;10.05;3.60;;;13.80;97.00;;;;;;5003354;28;20019;-77
2021/12/20 10:17:35;;;;;;;10.45;3.30;;;13.80;97.00;;;;;;5003193;28;20042;-77
2021/12/20 10:20:15;;;;;;;8.40;3.33;;;14.10;96.50;;;;;;4999368;28;20544;-76
2021/12/20 10:22:41;;;;;;;11.38;5.13;;;14.10;96.20;;;;;;5001900;28;20042;-77
2021/12/20 10:25:29;;;;;;;22.17;3.85;;;14.50;95.90;;;;;;5002817;28;20511;-77
2021/12/20 10:28:14;;;;;;;12.57;4.00;;;14.60;95.60;;;;;;4997684;28;20102;-78
2021/12/20 10:30:45;;;;;;;7.03;3.53;;;14.80;95.30;;;;;;4998270;28;20014;-78
2021/12/20 10:33:16;;;;;;;4.50;2.90;;;14.80;94.80;;;;;;5002233;28;20157;-78
2021/12/20 10:35:52;;;;;;;8.65;3.72;;;14.80;94.20;;;;;;4995147;28;20073;-75
2021/12/20 10:38:18;;;;;;;16.80;3.05;;;14.50;94.50;;;;;;4994660;28;20034;-76
2021/12/20 10:41:22;;;;;;;4.97;2.70;;;14.70;94.10;;;;;;5000969;28;20370;-78
2021/12/20 10:44:00;;;;;;;7.30;2.58;;;14.80;93.70;;;;;;5006963;28;20483;-77
2021/12/20 10:46:33;;;;;;;19.15;2.83;;;14.60;93.50;;;;;;4995982;28;20077;-79
2021/12/20 10:49:14;;;;;;;5.03;2.80;;;14.10;94.10;;;;;;4993837;28;20058;-77
2021/12/20 10:51:44;;;;;;;6.18;2.25;;;14.50;93.80;;;;;;4995837;28;20026;-77
2021/12/20 10:54:15;;;;;;;3.85;2.40;;;14.70;93.20;;;;;;4994044;28;20368;-77
2021/12/20 10:57:02;;;;;;;7.88;3.00;;;14.40;93.50;;;;;;4993457;28;20364;-75
2021/12/20 10:59:30;;;;;;;4.82;2.60;;;14.70;93.00;;;;;;4993609;28;20022;-76
2021/12/20 11:04:51;;;;;;;5.85;2.63;;;14.80;92.20;;;;;;4992996;28;20045;-76
2021/12/20 11:09:55;;;;;;;15.05;2.30;;;14.80;92.00;;;;;;4993107;28;20045;-77
2021/12/20 11:12:26;;;;;;;4.25;2.28;;;14.80;91.60;;;;;;4994001;28;20489;-77
2021/12/20 11:14:55;;;;;;;2.90;2.23;;;14.70;91.70;;;;;;4994068;28;20549;-77
2021/12/20 11:17:22;;;;;;;8.55;1.98;;;14.80;91.60;;;;;;4992669;28;20415;-77
2021/12/20 11:19:54;;;;;;;2.80;2.03;;;15.00;91.30;;;;;;4995784;28;20033;-77
2021/12/20 11:22:24;;;;;;;;;;;14.80;90.80;;;;;;4980408;28;20035;-77
2021/12/20 11:25:12;;;;;;;2.55;1.90;;;14.90;91.30;;;;;;4978976;28;20281;-78
2021/12/20 11:27:41;;;;;;;3.50;2.17;;;14.80;90.20;;;;;;4976689;28;20062;-75
2021/12/20 11:30:08;;;;;;;3.00;2.20;;;14.60;90.60;;;;;;4983335;28;20041;-76
2021/12/20 11:32:35;;;;;;;3.88;2.35;;;14.40;90.80;;;;;;4995542;28;20022;-78
2021/12/20 11:35:01;;;;;;;3.30;1.83;;;14.50;90.70;;;;;;4996425;28;20068;-81
2021/12/20 11:37:29;;;;;;;2.72;1.90;;;14.80;90.10;;;;;;4998195;28;20026;-78
2021/12/20 11:39:56;;;;;;;3.97;2.03;;;15.00;90.20;;;;;;4991298;28;20088;-76
2021/12/20 11:42:22;;;;;;;3.15;2.17;;;14.90;89.30;;;;;;4996121;28;20124;-77
2021/12/20 11:44:53;;;;;;;4.88;2.33;;;14.70;89.30;;;;;;4990296;28;20037;-76
2021/12/20 11:47:25;;;;;;;3.50;2.20;;;14.40;90.00;;;;;;4990626;28;20030;-79
2021/12/20 11:49:56;;;;;;;6.05;1.85;;;14.20;89.20;;;;;;4992926;28;20284;-78
2021/12/20 11:52:22;;;;;;;2.90;2.05;;;14.20;89.40;;;;;;5008428;28;20034;-78
2021/12/20 11:54:53;;;;;;;3.97;1.83;;;14.30;90.20;;;;;;4995727;28;20109;-77
2021/12/20 11:57:28;;;;;;;3.67;2.15;;;14.10;89.60;;;;;;4996704;28;20030;-78
2021/12/20 12:00:19;;;;;;;5.40;2.30;;;13.90;89.90;;;;;;4979032;28;20027;-81
2021/12/20 12:02:46;;;;;;;3.83;1.98;;;13.80;90.30;;;;;;4978181;28;20530;-78
2021/12/20 12:05:17;;;;;;;4.35;2.25;;;13.80;90.40;;;;;;4987121;28;20038;-80
2021/12/20 12:07:45;;;;;;;3.88;2.17;;;13.70;90.30;;;;;;4994951;28;20030;-79
2021/12/20 12:10:14;;;;;;;6.20;1.95;;;13.60;90.30;;;;;;4996997;28;20080;-78
2021/12/20 12:12:43;;;;;;;3.63;2.40;;;13.60;90.40;;;;;;4995567;28;20023;-78
2021/12/20 12:15:13;;;;;;;4.40;2.13;;;13.50;90.40;;;;;;4997939;28;20033;-78
2021/12/20 12:18:10;;;;;;;4.00;2.28;;;13.30;90.30;;;;;;4996380;28;20039;-78
2021/12/20 12:20:37;;;;;;;5.20;2.35;;;13.30;90.30;;;;;;4959554;28;20498;-79
2021/12/20 12:23:29;;;;;;;11.60;2.70;;;13.20;90.50;;;;;;4995976;28;20027;-76
2021/12/20 12:25:57;;;;;;;7.47;2.15;;;13.20;89.90;;;;;;4989773;28;20031;-78
2021/12/20 12:28:26;;;;;;;6.13;2.50;;;13.00;90.10;;;;;;4996194;28;20085;-78
2021/12/20 12:31:01;;;;;;;7.40;1.77;;;12.90;90.60;;;;;;4996764;28;20026;-77
2021/12/20 12:33:30;;;;;;;3.40;2.20;;;12.90;90.40;;;;;;4997643;28;20050;-78
2021/12/20 12:35:59;;;;;;;4.07;2.30;;;12.90;90.30;;;;;;4995361;28;20038;-78
2021/12/20 12:38:33;;;;;;;4.45;2.17;;;12.80;90.30;;;;;;4998089;28;20070;-79
2021/12/20 12:41:05;;;;;;;3.28;2.05;;;12.80;90.10;;;;;;4998681;28;20033;-80
2021/12/20 12:43:55;;;;;;;2.92;2.08;;;12.80;90.40;;;;;;5001943;28;20026;-77
2021/12/20 12:46:55;;;;;;;3.08;2.00;;;12.70;90.50;;;;;;5000454;28;20093;-79
2021/12/20 12:49:21;;;;;;;2.35;1.90;;;12.60;90.40;;;;;;4989907;28;20049;-77
2021/12/20 12:51:48;;;;;;;2.97;1.80;;;12.60;90.10;;;;;;4998329;28;20019;-79
2021/12/20 12:54:32;;;;;;;5.75;1.83;;;12.60;90.30;;;;;;4996167;28;20111;-78
2021/12/20 12:57:09;;;;;;;11.13;1.90;;;12.50;90.30;;;;;;4995895;28;20038;-79
2021/12/20 12:59:58;;;;;;;3.15;2.30;;;12.50;90.10;;;;;;4995307;28;20022;-74